Time;durP1;ratioP1;P1;durP2;ratioP2;P2;SDS_P1;SDS_P2;PMS_P1;PMS_P2;Temp;Humidity;BMP_temperature;BMP_pressure;BME280_temperature;BME280_humidity;BME280_pressure;Samples;Min_cycle;Max_cycle;Signal;HPM_P1;HPM_P2
2021/03/23 00:01:17;;;;;;;18.30;10.43;;;5.90;99.90;;;;;;4195847;28;20028;-71
2021/03/23 00:03:27;;;;;;;13.82;9.85;;;5.80;99.90;;;;;;4194076;28;20028;-72
2021/03/23 00:05:28;;;;;;;15.00;10.82;;;5.80;99.90;;;;;;4195831;28;20127;-73
2021/03/23 00:07:31;;;;;;;14.93;10.88;;;5.70;99.90;;;;;;4194347;28;20033;-73
2021/03/23 00:09:31;;;;;;;18.23;11.98;;;5.70;99.90;;;;;;4195485;28;20040;-71
2021/03/23 00:11:37;;;;;;;14.27;10.25;;;5.70;99.90;;;;;;4195334;28;20031;-73
2021/03/23 00:13:42;;;;;;;17.15;10.88;;;5.70;99.90;;;;;;4191479;28;20498;-73
2021/03/23 00:15:43;;;;;;;15.98;11.55;;;5.70;99.90;;;;;;4189999;28;20024;-74
2021/03/23 00:17:44;;;;;;;12.88;10.23;;;5.70;99.90;;;;;;4194232;28;20024;-73
2021/03/23 00:19:45;;;;;;;15.95;11.43;;;5.70;99.90;;;;;;4193985;28;20037;-73
2021/03/23 00:21:46;;;;;;;17.38;10.50;;;5.70;99.90;;;;;;4194124;28;20032;-73
2021/03/23 00:23:47;;;;;;;14.23;10.55;;;5.70;99.90;;;;;;4194212;28;20419;-73
2021/03/23 00:25:49;;;;;;;14.68;11.27;;;5.70;99.90;;;;;;4195177;28;20043;-73
2021/03/23 00:27:49;;;;;;;16.45;10.63;;;5.60;99.90;;;;;;4193667;28;20398;-73
2021/03/23 00:29:50;;;;;;;17.75;11.52;;;5.60;99.90;;;;;;4193889;28;20133;-72
2021/03/23 00:31:50;;;;;;;15.05;11.07;;;5.50;99.90;;;;;;4195038;28;20029;-73
2021/03/23 00:33:51;;;;;;;15.18;10.65;;;5.50;99.90;;;;;;4195470;28;20036;-73
2021/03/23 00:35:58;;;;;;;14.73;9.88;;;5.40;99.90;;;;;;4195304;28;20040;-72
2021/03/23 00:38:01;;;;;;;13.20;10.32;;;5.30;99.90;;;;;;4195351;28;20028;-72
2021/03/23 00:40:05;;;;;;;14.80;10.25;;;5.30;99.90;;;;;;4189160;28;20039;-72
2021/03/23 00:42:06;;;;;;;;;;;5.20;99.90;;;;;;4195804;28;20051;-73
2021/03/23 00:44:10;;;;;;;14.88;10.35;;;5.20;99.90;;;;;;4195461;28;19940;-72
2021/03/23 00:46:11;;;;;;;13.75;10.95;;;5.20;99.90;;;;;;4194809;28;20029;-72
2021/03/23 00:48:13;;;;;;;14.65;10.38;;;5.20;99.90;;;;;;4194841;28;20086;-72
2021/03/23 00:50:14;;;;;;;16.23;10.20;;;5.20;99.90;;;;;;4193576;28;20033;-73
2021/03/23 00:52:15;;;;;;;14.68;9.90;;;5.20;99.90;;;;;;4193789;28;20507;-72
2021/03/23 00:54:15;;;;;;;12.05;9.60;;;5.20;99.90;;;;;;4193456;28;20032;-72
2021/03/23 00:56:16;;;;;;;13.43;9.57;;;5.20;99.90;;;;;;4193341;28;20024;-72
2021/03/23 00:58:17;;;;;;;12.63;10.15;;;5.20;99.90;;;;;;4193737;28;20037;-72
2021/03/23 01:00:19;;;;;;;17.23;9.77;;;5.30;99.90;;;;;;4194861;28;20055;-72
2021/03/23 01:02:19;;;;;;;14.82;10.15;;;5.30;99.90;;;;;;4194599;28;20081;-72
2021/03/23 01:04:20;;;;;;;15.18;10.48;;;5.30;99.90;;;;;;4195055;28;20032;-72
2021/03/23 01:06:21;;;;;;;16.25;10.32;;;5.30;99.90;;;;;;4193658;28;20044;-72
2021/03/23 01:08:22;;;;;;;11.88;9.18;;;5.40;99.90;;;;;;4195014;28;20391;-72
2021/03/23 01:10:26;;;;;;;16.42;10.75;;;5.40;99.90;;;;;;4193389;28;20064;-72
2021/03/23 01:12:26;;;;;;;18.20;12.13;;;5.40;99.90;;;;;;4195104;28;22217;-72
2021/03/23 01:14:27;;;;;;;17.25;10.20;;;5.50;99.90;;;;;;4193452;28;20073;-72
2021/03/23 01:16:27;;;;;;;17.17;10.88;;;5.50;99.90;;;;;;4194561;28;20034;-72
2021/03/23 01:18:28;;;;;;;16.60;11.32;;;5.50;99.90;;;;;;4195088;28;20494;-72
2021/03/23 01:20:30;;;;;;;16.60;11.35;;;5.50;99.90;;;;;;4194357;28;20120;-72
2021/03/23 01:22:31;;;;;;;15.15;10.60;;;5.50;99.90;;;;;;4187760;28;20040;-72
2021/03/23 01:24:32;;;;;;;13.15;10.38;;;5.50;99.90;;;;;;4194806;28;20032;-72
2021/03/23 01:26:33;;;;;;;18.80;11.38;;;5.50;99.90;;;;;;4193555;28;20040;-72
2021/03/23 01:28:34;;;;;;;19.13;11.50;;;5.60;99.90;;;;;;4194743;28;20052;-72
2021/03/23 01:30:34;;;;;;;17.25;11.25;;;5.60;99.90;;;;;;4194754;28;20392;-72
2021/03/23 01:32:35;;;;;;;16.98;10.65;;;5.60;99.90;;;;;;4194439;28;20040;-72
2021/03/23 01:34:36;;;;;;;17.15;11.38;;;5.70;99.90;;;;;;4194931;28;20036;-72
2021/03/23 01:36:37;;;;;;;16.85;11.02;;;5.70;99.90;;;;;;4194780;28;20037;-73
2021/03/23 01:38:38;;;;;;;14.40;10.25;;;5.70;99.90;;;;;;4193179;28;20055;-72
2021/03/23 01:40:39;;;;;;;16.27;10.80;;;5.70;99.90;;;;;;4194732;28;20060;-72
2021/03/23 01:42:44;;;;;;;20.70;11.02;;;5.70;99.90;;;;;;4194465;28;20041;-72
2021/03/23 01:44:47;;;;;;;15.45;11.48;;;5.70;99.90;;;;;;4194726;28;20025;-72
2021/03/23 01:46:49;;;;;;;17.05;11.73;;;5.70;99.90;;;;;;4194558;28;20041;-72
2021/03/23 01:48:50;;;;;;;17.53;11.33;;;5.80;99.90;;;;;;4192966;28;20086;-72
2021/03/23 01:51:11;;;;;;;19.35;11.23;;;5.80;99.90;;;;;;4194671;28;20275;-72
2021/03/23 01:53:23;;;;;;;17.00;13.10;;;5.80;99.90;;;;;;4189295;28;20025;-72
2021/03/23 01:55:24;;;;;;;15.77;11.57;;;5.80;99.90;;;;;;4193314;28;20032;-72
2021/03/23 01:57:25;;;;;;;16.05;10.98;;;5.80;99.90;;;;;;4193067;28;20507;-72
2021/03/23 01:59:29;;;;;;;14.75;10.95;;;5.80;99.90;;;;;;4190800;28;20051;-72
2021/03/23 02:01:31;;;;;;;18.65;11.35;;;5.80;99.90;;;;;;4194588;28;20056;-71
2021/03/23 02:03:31;;;;;;;19.67;11.75;;;5.80;99.90;;;;;;4192938;28;20094;-73
2021/03/23 02:05:33;;;;;;;19.35;12.75;;;5.90;99.90;;;;;;4192915;28;20036;-73
2021/03/23 02:07:33;;;;;;;15.25;12.52;;;5.90;99.90;;;;;;4193149;28;20041;-72
2021/03/23 02:09:36;;;;;;;16.77;11.90;;;5.90;99.90;;;;;;4194285;28;20399;-71
2021/03/23 02:11:51;;;;;;;14.57;12.07;;;5.90;99.90;;;;;;4194408;28;20041;-71
2021/03/23 02:13:53;;;;;;;16.10;11.50;;;5.90;99.90;;;;;;4194552;28;20041;-72
2021/03/23 02:15:54;;;;;;;19.63;12.57;;;5.90;99.90;;;;;;4192889;28;20063;-71
2021/03/23 02:18:17;;;;;;;18.77;11.43;;;5.90;99.90;;;;;;4194082;28;20032;-71
2021/03/23 02:20:19;;;;;;;16.48;12.93;;;5.90;99.90;;;;;;4193893;28;20037;-71
2021/03/23 02:22:25;;;;;;;17.73;11.80;;;5.90;99.90;;;;;;4194148;28;20037;-71
2021/03/23 02:24:25;;;;;;;17.77;12.80;;;5.90;99.90;;;;;;4193962;28;20417;-71
2021/03/23 02:26:35;;;;;;;16.25;12.27;;;5.80;99.90;;;;;;4192831;28;20051;-71
2021/03/23 02:29:00;;;;;;;21.48;12.68;;;5.80;99.90;;;;;;4196210;28;20044;-72
2021/03/23 02:31:00;;;;;;;19.42;12.98;;;5.80;99.90;;;;;;4196577;28;20090;-71
2021/03/23 02:33:02;;;;;;;18.80;13.30;;;5.80;99.90;;;;;;4195644;28;20127;-74
2021/03/23 02:35:04;;;;;;;20.15;14.80;;;5.80;99.90;;;;;;4197394;28;20036;-72
2021/03/23 02:37:05;;;;;;;18.67;14.35;;;5.90;99.90;;;;;;4197148;28;20082;-72
2021/03/23 02:39:07;;;;;;;25.48;16.15;;;5.90;99.90;;;;;;4195701;28;20032;-73
2021/03/23 02:41:08;;;;;;;19.20;15.07;;;5.90;99.90;;;;;;4197347;28;20034;-73
2021/03/23 02:43:10;;;;;;;23.38;15.95;;;5.90;99.90;;;;;;4197184;28;20167;-73
2021/03/23 02:45:11;;;;;;;23.50;15.82;;;5.80;99.90;;;;;;4196755;28;20102;-72
2021/03/23 02:47:14;;;;;;;24.08;16.60;;;5.80;99.90;;;;;;4195675;28;20024;-72
2021/03/23 02:49:15;;;;;;;26.10;16.85;;;5.80;99.90;;;;;;4197504;28;20144;-73
2021/03/23 02:51:18;;;;;;;23.38;16.73;;;5.80;99.90;;;;;;4195591;28;20025;-72
2021/03/23 02:53:19;;;;;;;23.98;14.77;;;5.80;99.90;;;;;;4195732;28;20538;-73
2021/03/23 02:55:20;;;;;;;23.50;16.27;;;5.80;99.90;;;;;;4195205;28;20036;-71
2021/03/23 02:57:20;;;;;;;23.67;14.93;;;5.80;99.90;;;;;;4196818;28;20020;-73
2021/03/23 02:59:21;;;;;;;24.17;16.80;;;5.80;99.90;;;;;;4197020;28;20820;-72
2021/03/23 03:01:22;;;;;;;29.70;16.80;;;5.80;99.90;;;;;;4196873;28;20078;-72
2021/03/23 03:03:22;;;;;;;25.00;16.33;;;5.80;99.90;;;;;;4196759;28;20396;-72
2021/03/23 03:05:23;;;;;;;24.42;16.90;;;5.80;99.90;;;;;;4196872;28;20043;-72
2021/03/23 03:07:24;;;;;;;26.08;15.05;;;5.80;99.90;;;;;;4195596;28;20388;-73
2021/03/23 03:09:25;;;;;;;24.88;16.88;;;5.80;99.90;;;;;;4196852;28;20061;-73
2021/03/23 03:11:25;;;;;;;25.30;16.10;;;5.80;99.90;;;;;;4195691;28;20060;-72
2021/03/23 03:13:27;;;;;;;27.38;16.95;;;5.80;99.90;;;;;;4195436;28;20112;-73
2021/03/23 03:15:30;;;;;;;21.23;14.98;;;5.80;99.90;;;;;;4196572;28;20045;-72
2021/03/23 03:17:30;;;;;;;21.05;16.00;;;5.80;99.90;;;;;;4193452;28;20052;-72
2021/03/23 03:19:30;;;;;;;26.83;16.98;;;5.80;99.90;;;;;;4196613;28;20044;-73
2021/03/23 03:21:31;;;;;;;24.65;16.05;;;5.80;99.90;;;;;;4196714;28;20098;-73
2021/03/23 03:23:32;;;;;;;24.10;16.08;;;5.70;99.90;;;;;;4196689;28;20373;-72
2021/03/23 03:25:33;;;;;;;25.00;16.42;;;5.80;99.90;;;;;;4194794;28;20032;-73
2021/03/23 03:27:34;;;;;;;27.58;17.40;;;5.80;99.90;;;;;;4196537;28;20036;-73
2021/03/23 03:29:34;;;;;;;27.20;17.63;;;5.80;99.90;;;;;;4196490;28;20501;-72
2021/03/23 03:31:35;;;;;;;23.38;16.90;;;5.80;99.90;;;;;;4196479;28;20041;-73
2021/03/23 03:33:36;;;;;;;23.83;18.35;;;5.80;99.90;;;;;;4195917;28;20033;-73
2021/03/23 03:35:39;;;;;;;30.77;19.75;;;5.80;99.90;;;;;;4194932;28;20399;-72
2021/03/23 03:37:39;;;;;;;29.52;18.50;;;5.80;99.90;;;;;;4195598;28;20098;-72
2021/03/23 03:39:40;;;;;;;32.90;19.63;;;5.80;99.90;;;;;;4195932;28;20037;-72
2021/03/23 03:41:41;;;;;;;26.85;18.40;;;5.80;99.90;;;;;;4194873;28;20028;-73
2021/03/23 03:43:42;;;;;;;30.73;21.95;;;5.70;99.90;;;;;;4196109;28;20039;-72
2021/03/23 03:45:43;;;;;;;28.92;19.95;;;5.70;99.90;;;;;;4196674;28;20111;-73
2021/03/23 03:47:44;;;;;;;34.40;22.17;;;5.70;99.90;;;;;;4196346;28;20033;-72
2021/03/23 03:49:44;;;;;;;31.92;20.65;;;5.70;99.90;;;;;;4195050;28;20036;-72
2021/03/23 03:51:45;;;;;;;29.23;21.25;;;5.70;99.90;;;;;;4196425;28;20101;-72
2021/03/23 03:53:46;;;;;;;32.00;21.38;;;5.80;99.90;;;;;;4196112;28;20483;-73
2021/03/23 03:55:47;;;;;;;29.90;22.33;;;5.70;99.90;;;;;;4195576;28;20036;-72
2021/03/23 03:57:47;;;;;;;33.38;22.42;;;5.80;99.90;;;;;;4194787;28;20063;-72
2021/03/23 03:59:49;;;;;;;33.65;23.63;;;5.80;99.90;;;;;;4193837;28;20032;-73
2021/03/23 04:01:50;;;;;;;35.10;22.20;;;5.80;99.90;;;;;;4194965;28;20041;-72
2021/03/23 04:03:50;;;;;;;31.73;20.90;;;5.80;99.90;;;;;;4195874;28;20120;-73
2021/03/23 04:05:53;;;;;;;32.72;22.02;;;5.80;99.90;;;;;;4195911;28;20063;-72
2021/03/23 04:07:55;;;;;;;36.47;23.55;;;5.80;99.90;;;;;;4195851;28;20060;-73
2021/03/23 04:09:55;;;;;;;38.13;24.17;;;5.80;99.90;;;;;;4196026;28;20094;-72
2021/03/23 04:11:59;;;;;;;36.58;23.15;;;5.80;99.90;;;;;;4195930;28;20395;-73
2021/03/23 04:14:00;;;;;;;36.20;24.15;;;5.80;99.90;;;;;;4194733;28;20040;-73
2021/03/23 04:16:01;;;;;;;38.00;24.13;;;5.70;99.90;;;;;;4195743;28;20036;-73
2021/03/23 04:18:02;;;;;;;35.60;24.83;;;5.70;99.90;;;;;;4195230;28;20395;-74
2021/03/23 04:20:04;;;;;;;35.72;25.20;;;5.70;99.90;;;;;;4195803;28;20044;-73
2021/03/23 04:22:05;;;;;;;38.80;25.90;;;5.70;99.90;;;;;;4195615;28;20029;-73
2021/03/23 04:24:06;;;;;;;34.58;24.77;;;5.70;99.90;;;;;;4195715;28;20423;-73
2021/03/23 04:26:08;;;;;;;36.25;25.70;;;5.70;99.90;;;;;;4194231;28;20039;-72
2021/03/23 04:28:09;;;;;;;41.22;28.05;;;5.80;99.90;;;;;;4193947;28;21025;-72
2021/03/23 04:30:11;;;;;;;42.25;25.58;;;5.80;99.90;;;;;;4194350;28;20033;-73
2021/03/23 04:32:11;;;;;;;42.28;26.10;;;5.80;99.90;;;;;;4195289;28;20039;-73
2021/03/23 04:34:14;;;;;;;38.40;25.80;;;5.70;99.90;;;;;;4195427;28;20388;-73
2021/03/23 04:36:15;;;;;;;41.72;25.77;;;5.70;99.90;;;;;;4194280;28;20115;-72
2021/03/23 04:38:22;;;;;;;42.05;27.58;;;5.80;99.90;;;;;;4195347;28;20447;-72
2021/03/23 04:40:23;;;;;;;41.33;27.15;;;5.70;99.90;;;;;;4194018;28;20048;-73
2021/03/23 04:42:24;;;;;;;40.47;28.40;;;5.70;99.90;;;;;;4194150;28;20044;-73
2021/03/23 04:44:24;;;;;;;39.20;27.70;;;5.80;99.90;;;;;;4193925;28;20124;-72
2021/03/23 04:46:28;;;;;;;43.70;28.27;;;5.70;99.90;;;;;;4195495;28;20033;-73
2021/03/23 04:48:28;;;;;;;40.65;29.35;;;5.60;99.90;;;;;;4195299;28;20111;-74
2021/03/23 04:50:29;;;;;;;44.83;29.90;;;5.60;99.90;;;;;;4194883;28;20059;-73
2021/03/23 04:52:30;;;;;;;40.22;27.30;;;5.50;99.90;;;;;;4195338;28;20044;-72
2021/03/23 04:54:30;;;;;;;42.17;27.35;;;5.50;99.90;;;;;;4193593;28;20070;-73
2021/03/23 04:56:40;;;;;;;47.40;31.20;;;5.50;99.90;;;;;;4195371;28;20123;-73
2021/03/23 04:58:40;;;;;;;44.78;28.52;;;5.50;99.90;;;;;;4193695;28;20484;-73
2021/03/23 05:00:41;;;;;;;41.78;28.67;;;5.50;99.90;;;;;;4193749;28;20119;-73
2021/03/23 05:02:42;;;;;;;44.35;28.33;;;5.50;99.90;;;;;;4193680;28;20102;-73
2021/03/23 05:04:43;;;;;;;54.53;29.65;;;5.60;99.90;;;;;;4195193;28;20040;-73
2021/03/23 05:06:44;;;;;;;42.45;27.58;;;5.50;99.90;;;;;;4193757;28;20033;-73
2021/03/23 05:08:45;;;;;;;42.13;29.38;;;5.50;99.90;;;;;;4195549;28;20082;-72
2021/03/23 05:10:46;;;;;;;49.20;28.73;;;5.50;99.90;;;;;;4189999;28;20040;-73
2021/03/23 05:12:46;;;;;;;44.75;29.02;;;5.50;99.90;;;;;;4193737;28;20054;-73
2021/03/23 05:14:47;;;;;;;48.10;27.85;;;5.50;99.90;;;;;;4195096;28;20036;-73
2021/03/23 05:16:48;;;;;;;50.85;28.35;;;5.50;99.90;;;;;;4194904;28;20044;-72
2021/03/23 05:18:49;;;;;;;43.33;27.52;;;5.40;99.90;;;;;;4193472;28;20032;-73
2021/03/23 05:20:50;;;;;;;55.67;31.83;;;5.40;99.90;;;;;;4193751;28;20123;-74
2021/03/23 05:22:52;;;;;;;49.72;31.75;;;5.30;99.90;;;;;;4193596;28;20408;-73
2021/03/23 05:24:52;;;;;;;42.08;27.90;;;5.30;99.90;;;;;;4194669;28;20032;-72
2021/03/23 05:26:53;;;;;;;44.40;30.25;;;5.30;99.90;;;;;;4193762;28;20029;-72
2021/03/23 05:28:54;;;;;;;48.42;28.33;;;5.30;99.90;;;;;;4193489;28;20052;-72
2021/03/23 05:30:56;;;;;;;50.33;30.85;;;5.20;99.90;;;;;;4195016;28;20037;-73
2021/03/23 05:32:57;;;;;;;55.45;31.58;;;5.10;99.90;;;;;;4193191;28;20483;-72
2021/03/23 05:34:58;;;;;;;47.80;30.55;;;5.10;99.90;;;;;;4194585;28;20044;-72
2021/03/23 05:36:58;;;;;;;51.85;31.60;;;5.00;99.90;;;;;;4194547;28;20449;-72
2021/03/23 05:38:59;;;;;;;46.03;29.38;;;5.10;99.90;;;;;;4194931;28;20163;-73
2021/03/23 05:41:17;;;;;;;46.50;31.33;;;5.00;99.90;;;;;;4194854;28;20037;-72
2021/03/23 05:43:29;;;;;;;52.22;29.83;;;5.10;99.90;;;;;;4193055;28;20542;-73
2021/03/23 05:45:35;;;;;;;49.53;30.75;;;5.10;99.90;;;;;;4195080;28;20567;-73
2021/03/23 05:47:40;;;;;;;51.05;29.77;;;5.10;99.90;;;;;;4194692;28;20036;-72
2021/03/23 05:49:59;;;;;;;49.58;29.48;;;5.00;99.90;;;;;;4193465;28;20036;-73
2021/03/23 05:52:14;;;;;;;46.10;28.65;;;5.10;99.90;;;;;;4193183;28;20028;-72
2021/03/23 05:54:41;;;;;;;56.90;28.88;;;5.20;99.90;;;;;;4191579;28;20059;-72
2021/03/23 05:56:43;;;;;;;44.78;27.95;;;5.30;99.90;;;;;;4194623;28;20494;-73
2021/03/23 05:58:51;;;;;;;53.45;31.67;;;5.30;99.90;;;;;;4194636;28;20024;-72
2021/03/23 06:01:02;;;;;;;45.92;28.85;;;5.40;99.90;;;;;;4193607;28;20028;-72
2021/03/23 06:03:20;;;;;;;48.60;29.23;;;5.50;99.90;;;;;;4197839;28;20566;-72
2021/03/23 06:05:46;;;;;;;43.75;26.98;;;5.50;99.90;;;;;;4194680;28;20028;-73
2021/03/23 06:07:50;;;;;;;54.20;29.25;;;5.70;99.90;;;;;;4195493;28;20357;-73
2021/03/23 06:09:51;;;;;;;46.92;28.02;;;5.80;99.90;;;;;;4190253;28;20033;-72
2021/03/23 06:12:02;;;;;;;43.20;28.65;;;5.80;99.90;;;;;;4192725;28;20467;-73
2021/03/23 06:14:02;;;;;;;45.75;26.90;;;5.90;99.90;;;;;;4187961;28;20029;-72
2021/03/23 06:16:09;;;;;;;45.10;27.63;;;6.00;99.90;;;;;;4192101;28;20036;-73
2021/03/23 06:18:29;;;;;;;41.90;28.67;;;6.00;99.90;;;;;;4195311;28;20781;-73
2021/03/23 06:20:43;;;;;;;51.42;28.77;;;6.10;99.90;;;;;;4191514;28;20141;-73
2021/03/23 06:23:11;;;;;;;49.05;30.73;;;6.10;99.90;;;;;;4193900;28;20415;-73
2021/03/23 06:25:24;;;;;;;48.50;26.90;;;6.20;99.90;;;;;;4195688;28;20029;-73
2021/03/23 06:27:36;;;;;;;47.10;27.80;;;6.20;99.90;;;;;;4197762;28;20043;-72
2021/03/23 06:29:52;;;;;;;45.35;26.70;;;6.30;99.90;;;;;;4193168;28;20131;-72
2021/03/23 06:32:11;;;;;;;49.22;29.25;;;6.40;99.90;;;;;;4191996;28;20044;-73
2021/03/23 06:34:31;;;;;;;46.40;28.75;;;6.40;99.90;;;;;;4196977;28;20059;-72
2021/03/23 06:36:32;;;;;;;50.10;31.30;;;6.50;99.90;;;;;;4197303;28;20043;-73
2021/03/23 06:38:38;;;;;;;45.60;26.42;;;6.50;99.90;;;;;;4197190;28;20033;-72
2021/03/23 06:40:38;;;;;;;47.13;27.48;;;6.60;99.90;;;;;;4196093;28;20036;-73
2021/03/23 06:42:45;;;;;;;46.65;28.48;;;6.70;99.90;;;;;;4191467;28;20048;-72
2021/03/23 06:44:46;;;;;;;47.28;29.73;;;6.80;99.90;;;;;;4191754;28;20094;-73
2021/03/23 06:46:52;;;;;;;48.95;30.75;;;6.70;99.90;;;;;;4194557;28;20041;-72
2021/03/23 06:49:05;;;;;;;55.38;32.05;;;6.70;99.90;;;;;;4195369;28;20517;-73
2021/03/23 06:51:13;;;;;;;54.23;31.57;;;6.80;99.90;;;;;;4195663;28;20035;-72
2021/03/23 06:53:16;;;;;;;53.72;30.23;;;6.80;99.90;;;;;;4191587;28;20314;-72
2021/03/23 06:55:21;;;;;;;61.55;33.15;;;6.80;99.90;;;;;;4190136;28;20426;-72
2021/03/23 06:57:22;;;;;;;57.70;33.10;;;6.80;99.90;;;;;;4183914;28;20492;-73
2021/03/23 06:59:22;;;;;;;61.55;34.08;;;6.80;99.90;;;;;;4189776;28;20043;-72
2021/03/23 07:01:25;;;;;;;65.80;37.08;;;6.80;99.90;;;;;;4194543;28;20043;-72
2021/03/23 07:03:25;;;;;;;61.55;34.47;;;6.80;99.90;;;;;;4196870;28;20060;-72
2021/03/23 07:05:40;;;;;;;74.90;39.15;;;6.80;99.90;;;;;;4196174;28;20032;-73
2021/03/23 07:07:55;;;;;;;61.17;33.22;;;6.80;99.90;;;;;;4185184;28;20024;-72
2021/03/23 07:09:58;;;;;;;59.20;33.40;;;6.80;99.90;;;;;;4195969;28;20032;-72
2021/03/23 07:12:02;;;;;;;64.30;35.22;;;6.90;99.90;;;;;;4195849;28;20054;-73
2021/03/23 07:14:21;;;;;;;64.35;35.05;;;6.80;99.90;;;;;;4195335;28;20040;-72
2021/03/23 07:16:26;;;;;;;73.65;32.75;;;6.70;99.90;;;;;;4188266;28;20041;-72
2021/03/23 07:18:30;;;;;;;61.40;34.17;;;6.80;99.90;;;;;;4187153;28;20040;-73
2021/03/23 07:20:33;;;;;;;72.70;35.08;;;6.70;99.90;;;;;;4194554;28;20049;-72
2021/03/23 07:22:40;;;;;;;;;;;6.70;99.90;;;;;;4196874;28;20037;-72
2021/03/23 07:24:53;;;;;;;78.13;35.85;;;6.60;99.90;;;;;;4196124;28;19924;-73
2021/03/23 07:27:01;;;;;;;75.63;38.05;;;6.50;99.90;;;;;;4191834;28;20041;-72
2021/03/23 07:29:10;;;;;;;72.22;38.00;;;6.40;99.90;;;;;;4194606;28;20056;-72
2021/03/23 07:31:34;;;;;;;74.28;40.50;;;6.50;99.90;;;;;;4188796;28;20056;-72
2021/03/23 07:34:12;;;;;;;84.53;39.20;;;6.50;99.90;;;;;;4188901;28;20035;-74
2021/03/23 07:36:28;;;;;;;76.88;37.92;;;6.50;99.90;;;;;;4193845;28;20159;-74
2021/03/23 07:38:35;;;;;;;74.53;36.13;;;6.50;99.90;;;;;;4194640;28;20036;-72
2021/03/23 07:40:41;;;;;;;67.30;35.67;;;6.50;99.90;;;;;;4192957;28;20047;-74
2021/03/23 07:42:56;;;;;;;74.30;35.47;;;6.50;99.90;;;;;;4189681;28;20491;-74
2021/03/23 07:45:20;;;;;;;56.55;28.70;;;6.50;99.90;;;;;;4193936;28;20032;-72
2021/03/23 07:47:46;;;;;;;66.57;36.03;;;6.50;99.90;;;;;;4193264;28;20040;-71
2021/03/23 07:49:58;;;;;;;73.80;37.72;;;6.40;99.90;;;;;;4189522;28;20116;-73
2021/03/23 07:52:08;;;;;;;71.53;35.65;;;6.40;99.90;;;;;;4194060;28;20071;-72
2021/03/23 07:54:20;;;;;;;70.72;35.63;;;6.50;99.90;;;;;;4190751;28;20036;-72
2021/03/23 07:56:32;;;;;;;79.57;39.13;;;6.50;99.90;;;;;;4194679;28;20029;-72
2021/03/23 07:58:46;;;;;;;73.28;37.58;;;6.50;99.90;;;;;;4192700;28;20048;-73
2021/03/23 08:01:02;;;;;;;;;;;6.60;99.90;;;;;;4194235;28;20753;-72
2021/03/23 08:03:17;;;;;;;68.68;34.00;;;6.60;99.90;;;;;;4196009;28;19920;-72
2021/03/23 08:05:38;;;;;;;65.18;33.65;;;6.60;99.90;;;;;;4186473;28;20025;-72
2021/03/23 08:07:51;;;;;;;82.65;39.70;;;6.70;99.90;;;;;;4194479;28;20056;-73
2021/03/23 08:10:04;;;;;;;70.75;37.60;;;6.60;99.90;;;;;;4194222;28;20032;-73
2021/03/23 08:12:49;;;;;;;66.63;31.10;;;6.80;99.90;;;;;;4188505;28;20044;-73
2021/03/23 08:14:50;;;;;;;73.93;36.20;;;6.70;99.90;;;;;;4140890;28;20030;-73
2021/03/23 08:17:00;;;;;;;77.95;38.25;;;6.70;99.90;;;;;;4180491;28;20104;-72
2021/03/23 08:19:31;;;;;;;78.60;38.25;;;6.70;99.90;;;;;;4195172;28;20491;-73
2021/03/23 08:21:44;;;;;;;84.35;42.28;;;6.70;99.90;;;;;;4187457;28;20039;-73
2021/03/23 08:24:14;;;;;;;83.30;43.42;;;6.80;99.90;;;;;;4181593;28;20040;-72
2021/03/23 08:26:54;;;;;;;84.07;40.60;;;6.80;99.90;;;;;;4194491;28;20025;-72
2021/03/23 08:29:19;;;;;;;78.72;42.33;;;7.00;99.90;;;;;;4190535;28;20127;-73
2021/03/23 08:31:33;;;;;;;83.70;41.42;;;7.10;99.90;;;;;;4192828;28;20059;-73
2021/03/23 08:33:45;;;;;;;79.63;39.88;;;7.20;99.90;;;;;;4189619;28;20048;-72
2021/03/23 08:36:29;;;;;;;76.00;41.05;;;7.40;99.90;;;;;;4194242;28;20033;-72
2021/03/23 08:38:41;;;;;;;82.32;41.15;;;7.50;99.90;;;;;;4142564;28;20493;-71
2021/03/23 08:40:47;;;;;;;80.18;42.33;;;7.70;99.90;;;;;;4177998;28;20051;-71
2021/03/23 08:42:48;;;;;;;79.85;40.63;;;7.90;99.90;;;;;;4192025;28;20044;-72
2021/03/23 08:45:06;;;;;;;77.35;38.47;;;8.00;99.90;;;;;;4185554;28;20043;-73
2021/03/23 08:47:12;;;;;;;81.80;40.78;;;8.20;99.90;;;;;;4193812;28;20107;-72
2021/03/23 08:49:20;;;;;;;77.55;42.55;;;8.20;99.90;;;;;;4193200;28;20028;-72
2021/03/23 08:51:24;;;;;;;92.70;43.58;;;8.30;99.90;;;;;;4193594;28;20032;-72
2021/03/23 08:53:31;;;;;;;;;;;8.30;99.90;;;;;;4198481;28;20525;-72
2021/03/23 08:55:33;;;;;;;81.65;43.88;;;8.20;99.90;;;;;;4193561;28;19916;-73
2021/03/23 08:57:49;;;;;;;85.28;42.63;;;8.10;99.90;;;;;;4191682;28;20040;-72
2021/03/23 08:59:52;;;;;;;78.03;43.97;;;7.90;99.90;;;;;;4193180;28;20070;-72
2021/03/23 09:01:52;;;;;;;78.65;45.00;;;7.90;99.90;;;;;;4193118;28;20426;-72
2021/03/23 09:04:08;;;;;;;82.55;44.03;;;8.00;99.90;;;;;;4192668;28;20048;-72
2021/03/23 09:06:21;;;;;;;73.45;42.67;;;8.00;99.90;;;;;;4193859;28;20411;-72
2021/03/23 09:08:22;;;;;;;78.78;44.35;;;8.00;99.90;;;;;;4194655;28;20117;-72
2021/03/23 09:10:54;;;;;;;82.75;46.13;;;8.10;99.90;;;;;;4191880;28;20032;-72
2021/03/23 09:12:54;;;;;;;86.18;45.25;;;8.20;99.90;;;;;;4186594;28;20455;-72
2021/03/23 09:15:10;;;;;;;80.47;45.13;;;8.20;99.90;;;;;;4185503;28;20070;-73
2021/03/23 09:17:17;;;;;;;75.75;44.92;;;8.50;99.90;;;;;;4187972;28;20051;-72
2021/03/23 09:19:37;;;;;;;77.15;41.17;;;8.60;99.90;;;;;;4193159;28;20048;-72
2021/03/23 09:21:56;;;;;;;74.90;43.78;;;8.70;99.90;;;;;;4181863;28;20030;-71
2021/03/23 09:23:57;;;;;;;83.63;43.85;;;8.80;99.90;;;;;;4190711;28;20039;-73
2021/03/23 09:25:59;;;;;;;81.57;46.67;;;8.70;99.90;;;;;;4189251;28;20103;-72
2021/03/23 09:28:02;;;;;;;70.90;42.97;;;8.60;99.90;;;;;;4193773;28;20024;-72
2021/03/23 09:30:38;;;;;;;72.63;42.28;;;8.70;99.90;;;;;;4194017;28;20321;-71
2021/03/23 09:33:11;;;;;;;71.90;42.72;;;8.70;99.90;;;;;;4194000;28;20051;-72
2021/03/23 09:35:20;;;;;;;75.43;39.03;;;8.70;99.90;;;;;;4192240;28;20024;-72
2021/03/23 09:37:59;;;;;;;77.20;45.58;;;8.90;99.90;;;;;;4183258;28;20041;-70
2021/03/23 09:40:02;;;;;;;67.10;41.45;;;8.80;99.90;;;;;;4192379;28;20059;-71
2021/03/23 09:42:12;;;;;;;74.40;42.07;;;8.80;99.90;;;;;;4191921;28;20071;-72
2021/03/23 09:44:16;;;;;;;72.28;46.55;;;8.60;99.90;;;;;;4193538;28;20464;-72
2021/03/23 09:46:23;;;;;;;69.15;40.78;;;8.60;99.90;;;;;;4191817;28;20034;-71
2021/03/23 09:48:32;;;;;;;72.20;40.95;;;8.60;99.90;;;;;;4193228;28;20045;-72
2021/03/23 09:50:56;;;;;;;76.97;40.95;;;8.60;99.90;;;;;;4190647;28;20039;-72
2021/03/23 09:53:10;;;;;;;68.55;43.20;;;8.70;99.90;;;;;;4191068;28;20029;-72
2021/03/23 09:55:11;;;;;;;70.43;40.28;;;8.70;99.90;;;;;;4191473;28;20503;-71
2021/03/23 09:57:18;;;;;;;75.75;42.47;;;8.60;99.90;;;;;;4193791;28;20039;-72
2021/03/23 09:59:23;;;;;;;68.63;41.22;;;8.40;99.90;;;;;;4192634;28;20037;-72
2021/03/23 10:01:24;;;;;;;62.88;39.38;;;8.40;99.90;;;;;;4191736;28;20045;-72
2021/03/23 10:03:34;;;;;;;69.85;39.38;;;8.60;99.90;;;;;;4192602;28;20547;-73
2021/03/23 10:05:36;;;;;;;62.38;38.08;;;8.80;99.90;;;;;;4190209;28;20066;-72
2021/03/23 10:07:39;;;;;;;70.82;37.88;;;8.80;99.90;;;;;;4191644;28;20116;-73
2021/03/23 10:09:39;;;;;;;72.28;41.50;;;8.80;99.90;;;;;;4192350;28;20048;-72
2021/03/23 10:11:45;;;;;;;66.65;39.00;;;9.00;99.90;;;;;;4193723;28;20522;-73
2021/03/23 10:13:54;;;;;;;63.00;38.63;;;9.00;99.90;;;;;;4192944;28;20455;-73
2021/03/23 10:15:57;;;;;;;71.82;42.22;;;9.00;99.90;;;;;;4190048;28;20136;-72
2021/03/23 10:18:16;;;;;;;70.43;40.10;;;9.00;99.90;;;;;;4185652;28;20029;-72
2021/03/23 10:20:21;;;;;;;71.68;37.55;;;9.10;99.90;;;;;;4191403;28;20064;-72
2021/03/23 10:22:32;;;;;;;65.47;39.05;;;9.30;99.90;;;;;;4191192;28;20438;-72
2021/03/23 10:24:38;;;;;;;66.22;40.15;;;9.40;99.90;;;;;;4189944;28;20032;-72
2021/03/23 10:26:46;;;;;;;63.20;37.58;;;9.50;99.90;;;;;;4186098;28;20041;-73
2021/03/23 10:28:51;;;;;;;69.65;42.92;;;9.70;99.90;;;;;;4182117;28;20686;-72
2021/03/23 10:31:01;;;;;;;69.10;42.90;;;9.70;99.90;;;;;;4191114;28;20087;-73
2021/03/23 10:33:21;;;;;;;69.78;42.33;;;10.00;99.90;;;;;;4193059;28;20056;-70
2021/03/23 10:35:30;;;;;;;70.40;40.22;;;10.20;99.90;;;;;;4188892;28;20404;-71
2021/03/23 10:37:32;;;;;;;66.55;41.58;;;10.20;99.90;;;;;;4187840;28;20141;-71
2021/03/23 10:39:41;;;;;;;73.75;39.58;;;10.20;99.90;;;;;;4191562;28;20901;-73
2021/03/23 10:41:42;;;;;;;73.53;42.78;;;10.10;99.90;;;;;;4192025;28;20041;-73
2021/03/23 10:43:43;;;;;;;68.80;41.35;;;10.00;99.90;;;;;;4193399;28;20071;-73
2021/03/23 10:45:45;;;;;;;75.75;42.60;;;9.70;99.90;;;;;;4193011;28;20443;-73
2021/03/23 10:47:46;;;;;;;62.40;39.47;;;9.50;99.90;;;;;;4192210;28;20036;-72
2021/03/23 10:49:47;;;;;;;65.40;43.72;;;9.40;99.90;;;;;;4194242;28;20507;-73